Time;durP1;ratioP1;P1;durP2;ratioP2;P2;SDS_P1;SDS_P2;PMS_P1;PMS_P2;Temp;Humidity;BMP_temperature;BMP_pressure;BME280_temperature;BME280_humidity;BME280_pressure;Samples;Min_cycle;Max_cycle;Signal;HPM_P1;HPM_P2
2022/07/04 00:00:03;;;;;;;2.88;1.17;;;;;;;20.78;50.97;100593.13;4932786;28;20056;-73
2022/07/04 00:02:29;;;;;;;2.80;1.15;;;;;;;20.73;51.27;100593.50;4935193;28;20741;-70
2022/07/04 00:04:56;;;;;;;1.33;0.90;;;;;;;20.65;51.37;100590.59;4939239;28;20048;-75
2022/07/04 00:07:23;;;;;;;2.10;1.60;;;;;;;20.67;51.43;100602.94;4933159;28;20060;-74
2022/07/04 00:09:50;;;;;;;1.65;0.90;;;;;;;20.55;51.42;100587.88;4931432;28;20075;-73
2022/07/04 00:12:16;;;;;;;5.80;1.80;;;;;;;20.62;51.38;100605.16;4927387;28;20063;-73
2022/07/04 00:14:43;;;;;;;2.10;1.15;;;;;;;20.56;51.72;100596.78;4928847;28;20047;-73
2022/07/04 00:17:10;;;;;;;2.92;1.58;;;;;;;20.46;52.08;100593.19;4926064;28;20138;-75
2022/07/04 00:19:37;;;;;;;2.38;1.10;;;;;;;20.46;51.85;100596.69;4929670;28;20048;-75
2022/07/04 00:22:04;;;;;;;2.00;1.20;;;;;;;20.31;51.91;100566.53;4923239;28;20104;-76
2022/07/04 00:24:30;;;;;;;4.68;1.30;;;;;;;20.49;52.07;100604.50;4919114;28;20058;-73
2022/07/04 00:26:57;;;;;;;5.38;1.23;;;;;;;20.46;51.83;100591.31;4932430;28;20056;-74
2022/07/04 00:29:24;;;;;;;1.65;0.90;;;;;;;20.48;52.24;100591.19;4930512;28;20091;-76
2022/07/04 00:31:50;;;;;;;1.88;1.10;;;;;;;20.42;52.03;100587.22;4933662;28;20051;-76
2022/07/04 00:34:17;;;;;;;3.45;1.10;;;;;;;20.43;52.62;100598.81;4940785;28;20056;-72
2022/07/04 00:36:44;;;;;;;2.20;0.80;;;;;;;20.34;52.40;100589.66;4926571;29;20135;-76
2022/07/04 00:39:10;;;;;;;3.38;1.17;;;;;;;20.20;52.49;100571.13;4930156;28;20108;-73
2022/07/04 00:41:37;;;;;;;1.27;1.13;;;;;;;20.15;52.57;100563.44;4931941;28;20118;-75
2022/07/04 00:44:09;;;;;;;2.67;1.52;;;;;;;20.30;52.88;100589.03;4931362;28;20052;-74
2022/07/04 00:46:39;;;;;;;2.03;1.10;;;;;;;20.22;53.08;100580.78;4934149;28;20536;-74
2022/07/04 00:49:07;;;;;;;10.38;1.55;;;;;;;20.22;53.29;100585.31;4934595;29;20112;-76
2022/07/04 00:51:34;;;;;;;1.25;0.90;;;;;;;20.23;53.17;100589.72;4934534;28;20052;-76
2022/07/04 00:54:01;;;;;;;3.10;1.10;;;;;;;20.17;53.08;100583.00;4936694;28;20068;-76
2022/07/04 00:56:29;;;;;;;2.88;1.10;;;;;;;20.17;53.04;100595.59;4942788;28;20051;-73
2022/07/04 00:58:55;;;;;;;3.05;1.15;;;;;;;20.09;53.54;100603.44;4941044;28;20047;-74
2022/07/04 01:01:22;;;;;;;1.45;1.00;;;;;;;20.02;53.56;100594.19;4940671;29;20633;-73
2022/07/04 01:03:49;;;;;;;4.40;1.00;;;;;;;19.96;54.01;100595.56;4939031;29;20043;-76
2022/07/04 01:06:16;;;;;;;1.95;1.05;;;;;;;20.00;54.05;100596.13;4927047;28;20056;-74
2022/07/04 01:08:44;;;;;;;2.72;1.20;;;;;;;19.95;54.38;100599.22;4929504;28;20048;-76
2022/07/04 01:11:11;;;;;;;1.92;1.00;;;;;;;19.77;54.59;100579.25;4934229;28;20114;-76
2022/07/04 01:13:40;;;;;;;1.40;1.10;;;;;;;19.85;54.42;100600.94;4931603;29;20103;-76
2022/07/04 01:16:08;;;;;;;1.70;1.20;;;;;;;19.74;54.92;100604.53;4931061;28;20050;-75
2022/07/04 01:18:35;;;;;;;1.90;1.10;;;;;;;19.78;55.01;100613.19;4929222;29;20599;-75
2022/07/04 01:21:02;;;;;;;3.45;1.20;;;;;;;19.82;55.24;100620.03;4930391;29;20082;-75
2022/07/04 01:23:29;;;;;;;2.83;1.10;;;;;;;19.67;55.30;100607.84;4931515;29;20040;-75
2022/07/04 01:25:57;;;;;;;4.13;1.40;;;;;;;19.73;55.63;100626.13;4942989;29;20294;-75
2022/07/04 01:28:24;;;;;;;3.70;1.20;;;;;;;19.65;56.13;100618.72;4938442;28;20048;-75
2022/07/04 01:30:52;;;;;;;3.33;1.20;;;;;;;19.69;55.81;100635.41;4936981;28;20547;-75
2022/07/04 01:33:19;;;;;;;2.17;1.30;;;;;;;19.47;56.24;100612.97;4931541;29;20563;-75
2022/07/04 01:35:47;;;;;;;3.10;1.38;;;;;;;19.55;56.38;100636.53;4931160;29;20672;-74
2022/07/04 01:38:14;;;;;;;2.33;1.35;;;;;;;19.49;56.95;100642.38;4945742;28;20092;-73
2022/07/04 01:40:40;;;;;;;2.63;1.45;;;;;;;19.32;57.09;100622.25;4939712;28;20185;-75
2022/07/04 01:43:07;;;;;;;2.03;1.30;;;;;;;19.38;57.44;100637.00;4931167;28;20051;-75
2022/07/04 01:45:37;;;;;;;2.45;1.20;;;;;;;19.38;57.51;100639.69;4926812;29;20039;-76
2022/07/04 01:48:08;;;;;;;2.00;1.50;;;;;;;19.22;57.64;100615.88;4930737;28;20056;-75
2022/07/04 01:50:35;;;;;;;3.15;1.50;;;;;;;19.39;57.29;100644.09;4929081;28;21549;-74
2022/07/04 01:53:01;;;;;;;3.88;1.48;;;;;;;19.33;58.07;100640.06;4932331;28;20110;-76
2022/07/04 01:55:29;;;;;;;4.05;1.60;;;;;;;19.31;58.31;100647.41;4929847;28;20098;-75
2022/07/04 01:57:56;;;;;;;4.00;1.20;;;;;;;19.28;58.11;100647.63;4926379;28;20074;-74
2022/07/04 02:03:08;;;;;;;2.65;1.60;;;;;;;19.06;58.16;100624.28;4927429;28;20070;-75
2022/07/04 02:05:37;;;;;;;1.20;1.10;;;;;;;19.14;58.43;100654.09;4928231;29;20087;-73
2022/07/04 02:08:08;;;;;;;2.03;1.20;;;;;;;19.04;59.12;100644.22;4928201;28;20107;-74
2022/07/04 02:10:35;;;;;;;3.78;1.42;;;;;;;19.04;58.91;100649.56;4926741;28;21053;-74
2022/07/04 02:13:03;;;;;;;2.85;1.45;;;;;;;19.03;59.55;100656.78;4921998;28;20112;-73
2022/07/04 02:15:36;;;;;;;5.35;1.20;;;;;;;18.98;58.86;100652.72;4929129;28;20557;-75
2022/07/04 02:18:05;;;;;;;2.95;1.40;;;;;;;19.01;58.93;100657.84;4928837;28;20099;-75
2022/07/04 02:20:32;;;;;;;2.58;1.52;;;;;;;18.90;59.11;100661.34;4929669;28;20048;-75
2022/07/04 02:22:59;;;;;;;2.72;1.40;;;;;;;18.83;59.57;100663.66;4928843;29;20126;-75
2022/07/04 02:25:28;;;;;;;2.03;1.40;;;;;;;18.67;59.75;100640.81;4929161;28;20095;-75
2022/07/04 02:27:55;;;;;;;2.67;1.48;;;;;;;18.79;60.39;100655.97;4927901;29;20052;-75
2022/07/04 02:30:23;;;;;;;2.28;1.30;;;;;;;18.79;60.07;100664.03;4928880;28;20543;-76
2022/07/04 02:32:50;;;;;;;3.13;1.70;;;;;;;18.80;60.27;100669.28;4931102;29;20052;-75
2022/07/04 02:35:16;;;;;;;2.88;1.45;;;;;;;18.70;60.21;100649.50;4934356;28;20048;-74
2022/07/04 02:37:43;;;;;;;1.67;1.30;;;;;;;18.79;60.23;100669.38;4931375;28;20044;-72
2022/07/04 02:40:10;;;;;;;3.15;1.60;;;;;;;18.70;60.22;100656.69;4936505;28;20102;-75
2022/07/04 02:42:37;;;;;;;2.08;1.45;;;;;;;18.60;60.34;100650.28;4931716;28;20051;-74
2022/07/04 02:45:04;;;;;;;2.45;1.73;;;;;;;18.49;60.60;100649.25;4934981;28;20052;-76
2022/07/04 02:47:31;;;;;;;1.92;1.60;;;;;;;18.49;60.91;100665.34;4930522;28;20150;-75
2022/07/04 02:49:58;;;;;;;2.20;1.50;;;;;;;18.47;61.00;100667.28;4930098;28;20524;-75
2022/07/04 02:52:24;;;;;;;3.05;1.60;;;;;;;18.50;61.39;100672.44;4921120;28;20076;-75
2022/07/04 02:54:52;;;;;;;6.38;1.50;;;;;;;18.32;61.43;100656.88;4931750;28;20043;-75
2022/07/04 02:57:19;;;;;;;2.40;1.60;;;;;;;18.40;61.56;100675.94;4923960;28;20493;-75
2022/07/04 02:59:46;;;;;;;4.53;1.80;;;;;;;18.20;61.60;100647.91;4920884;28;20500;-76
2022/07/04 03:02:12;;;;;;;1.50;1.40;;;;;;;18.32;62.09;100678.31;4921503;28;20477;-75
2022/07/04 03:04:39;;;;;;;1.88;1.60;;;;;;;18.24;62.20;100684.25;4925802;28;20056;-73
2022/07/04 03:07:07;;;;;;;3.67;1.88;;;;;;;18.18;62.67;100676.66;4925505;29;20047;-75
2022/07/04 03:09:34;;;;;;;3.83;1.90;;;;;;;18.14;62.66;100681.38;4920905;28;20453;-74
2022/07/04 03:12:01;;;;;;;2.45;1.80;;;;;;;18.12;63.00;100669.91;4925754;28;20107;-76
2022/07/04 03:14:27;;;;;;;3.95;1.83;;;;;;;18.15;62.99;100679.56;4926543;28;20515;-75
2022/07/04 03:16:54;;;;;;;2.13;1.48;;;;;;;18.13;63.00;100684.19;4926905;28;20104;-76
2022/07/04 03:19:21;;;;;;;4.40;1.67;;;;;;;18.11;63.47;100683.44;4927726;28;20051;-76
2022/07/04 03:21:47;;;;;;;2.95;1.77;;;;;;;18.24;62.98;100684.25;4934385;28;20480;-75
2022/07/04 03:24:14;;;;;;;2.45;1.50;;;;;;;18.08;62.64;100655.06;4933549;28;20079;-73
2022/07/04 03:26:41;;;;;;;2.85;1.85;;;;;;;18.29;62.85;100690.13;4922705;28;20055;-76
2022/07/04 03:29:07;;;;;;;3.35;1.60;;;;;;;18.26;62.54;100695.69;4930118;28;20120;-75
2022/07/04 03:31:34;;;;;;;2.25;1.50;;;;;;;18.20;62.74;100680.09;4929316;28;20079;-76
2022/07/04 03:34:01;;;;;;;3.35;1.90;;;;;;;18.17;62.94;100691.03;4925345;29;20146;-77
2022/07/04 03:36:27;;;;;;;4.15;1.75;;;;;;;18.18;63.45;100698.09;4926606;28;20051;-75
2022/07/04 03:38:54;;;;;;;1.90;1.80;;;;;;;18.11;63.32;100683.44;4923230;28;20052;-75
2022/07/04 03:41:20;;;;;;;6.55;1.85;;;;;;;18.18;63.41;100698.09;4926544;28;20051;-75
2022/07/04 03:43:47;;;;;;;3.90;1.95;;;;;;;18.11;63.61;100697.69;4928373;28;20055;-75
2022/07/04 03:46:14;;;;;;;4.38;1.83;;;;;;;18.00;63.48;100675.34;4920344;29;20056;-76
2022/07/04 03:48:43;;;;;;;3.15;1.70;;;;;;;18.16;63.57;100708.06;4927501;28;20058;-75
2022/07/04 03:51:11;;;;;;;1.58;1.40;;;;;;;18.18;63.46;100708.81;4926302;28;20783;-76
2022/07/04 03:53:38;;;;;;;3.42;1.75;;;;;;;18.13;63.35;100709.16;4927398;28;20497;-76
2022/07/04 03:56:05;;;;;;;8.02;4.40;;;;;;;18.19;63.63;100713.22;4925733;29;20067;-77
2022/07/04 03:58:31;;;;;;;3.47;2.10;;;;;;;18.06;63.31;100685.63;4922678;28;20259;-77
2022/07/04 04:00:58;;;;;;;1.95;1.58;;;;;;;18.13;63.71;100709.16;4928218;28;20065;-73
2022/07/04 04:06:10;;;;;;;2.65;1.50;;;;;;;18.20;63.82;100713.09;4929510;28;20094;-74
2022/07/04 04:08:37;;;;;;;2.03;1.48;;;;;;;18.16;63.81;100718.81;4930354;28;20107;-77
2022/07/04 04:11:04;;;;;;;2.28;1.60;;;;;;;18.14;64.01;100718.91;4930792;28;20064;-77
2022/07/04 04:13:31;;;;;;;4.10;1.95;;;;;;;17.99;64.17;100705.78;4929116;28;20521;-75
2022/07/04 04:15:57;;;;;;;6.20;1.70;;;;;;;18.11;64.52;100724.50;4927853;28;20536;-75
2022/07/04 04:18:24;;;;;;;2.58;1.70;;;;;;;18.13;64.57;100727.06;4929714;28;20047;-76
2022/07/04 04:20:51;;;;;;;2.85;1.88;;;;;;;18.20;64.62;100731.00;4927183;29;20103;-75
2022/07/04 04:23:20;;;;;;;4.47;1.98;;;;;;;18.16;64.91;100726.84;4933065;28;20048;-75
2022/07/04 04:25:46;;;;;;;2.60;1.95;;;;;;;18.16;64.37;100726.84;4927744;28;20095;-76
2022/07/04 04:28:20;;;;;;;3.28;1.90;;;;;;;18.18;64.40;100731.13;4934125;28;20060;-75
2022/07/04 04:30:47;;;;;;;3.63;1.90;;;;;;;18.23;63.77;100738.84;4932217;28;20386;-75
2022/07/04 04:33:14;;;;;;;2.70;2.00;;;;;;;18.21;64.08;100740.78;4930809;29;20055;-74
2022/07/04 04:35:41;;;;;;;3.47;1.90;;;;;;;18.18;64.25;100728.44;4929984;29;20090;-75
2022/07/04 04:38:07;;;;;;;4.25;2.05;;;;;;;18.27;64.19;100745.66;4933021;28;20067;-75
2022/07/04 04:40:34;;;;;;;4.03;1.80;;;;;;;18.26;63.84;100743.13;4928433;28;20130;-75
2022/07/04 04:43:01;;;;;;;2.85;1.73;;;;;;;18.21;64.64;100738.09;4928162;28;20062;-75
2022/07/04 04:45:27;;;;;;;5.53;1.80;;;;;;;18.21;64.43;100751.50;4928909;29;20151;-75
2022/07/04 04:47:54;;;;;;;3.42;2.30;;;;;;;18.12;63.90;100728.88;4928818;28;20052;-74
2022/07/04 04:50:20;;;;;;;3.03;2.10;;;;;;;18.26;63.86;100751.16;4925089;28;20080;-73
2022/07/04 04:52:47;;;;;;;5.80;2.28;;;;;;;18.35;63.42;100759.38;4932065;29;20055;-75
2022/07/04 04:55:14;;;;;;;3.85;1.80;;;;;;;18.38;63.01;100753.78;4925241;29;20051;-75
2022/07/04 04:57:40;;;;;;;2.50;1.58;;;;;;;18.37;62.84;100762.81;4928385;28;20058;-76
2022/07/04 05:00:08;;;;;;;3.22;1.52;;;;;;;18.41;63.41;100760.75;4928321;28;20055;-75
2022/07/04 05:02:34;;;;;;;3.35;1.45;;;;;;;18.37;63.15;100745.88;4925362;29;20174;-75
2022/07/04 05:05:01;;;;;;;3.20;1.90;;;;;;;18.56;63.21;100765.00;4928687;28;20083;-75
2022/07/04 05:07:28;;;;;;;2.78;1.67;;;;;;;18.61;62.68;100760.16;4925467;29;20040;-72
2022/07/04 05:09:58;;;;;;;2.90;1.75;;;;;;;18.65;62.52;100766.16;4933027;29;20047;-75
2022/07/04 05:12:26;;;;;;;3.83;1.80;;;;;;;18.71;62.46;100765.72;4929241;28;20048;-77
2022/07/04 05:14:53;;;;;;;3.05;1.70;;;;;;;18.82;61.98;100768.44;4930382;28;20064;-75
2022/07/04 05:17:20;;;;;;;4.40;2.00;;;;;;;18.82;61.50;100769.28;4927943;28;20126;-72
2022/07/04 05:19:48;;;;;;;1.83;1.63;;;;;;;18.85;61.61;100771.75;4930062;29;20110;-75
2022/07/04 05:22:15;;;;;;;5.50;2.03;;;;;;;18.82;61.69;100757.69;4926810;29;20111;-75
2022/07/04 05:24:42;;;;;;;3.95;1.70;;;;;;;18.89;60.81;100762.47;4931795;28;20044;-77
2022/07/04 05:27:09;;;;;;;4.35;2.00;;;;;;;19.00;60.46;100771.56;4936129;28;20127;-75
2022/07/04 05:29:37;;;;;;;3.55;1.98;;;;;;;18.96;60.67;100773.59;4931639;28;20108;-75
2022/07/04 05:32:06;;;;;;;3.78;1.75;;;;;;;19.04;60.27;100779.25;4931728;28;20143;-74
2022/07/04 05:34:33;;;;;;;2.95;1.95;;;;;;;19.02;60.51;100765.09;4928609;28;20075;-75
2022/07/04 05:37:02;;;;;;;3.28;1.60;;;;;;;19.19;61.21;100778.09;4931473;28;20496;-77
2022/07/04 05:39:29;;;;;;;2.97;1.83;;;;;;;19.24;59.81;100778.56;4930890;28;20083;-77
2022/07/04 05:41:55;;;;;;;2.35;1.60;;;;;;;19.35;59.79;100771.53;4931539;28;20048;-78
2022/07/04 05:44:22;;;;;;;2.20;1.73;;;;;;;19.40;59.52;100769.31;4933743;28;20055;-81
2022/07/04 05:46:49;;;;;;;2.45;1.58;;;;;;;19.45;59.23;100772.53;4931310;28;20393;-82
2022/07/04 05:49:16;;;;;;;5.45;1.90;;;;;;;19.53;58.55;100778.16;4923236;28;20584;-80
2022/07/04 05:51:43;;;;;;;2.38;1.48;;;;;;;19.63;58.04;100783.69;4931286;28;20194;-80
2022/07/04 05:54:10;;;;;;;5.78;2.00;;;;;;;19.66;57.50;100781.63;4934028;29;20418;-83
2022/07/04 05:56:37;;;;;;;2.75;1.70;;;;;;;19.79;56.70;100785.06;4929822;28;20039;-80
2022/07/04 05:59:04;;;;;;;3.58;1.40;;;;;;;19.88;55.65;100787.00;4931098;28;20539;-82
2022/07/04 06:01:31;;;;;;;3.35;1.63;;;;;;;19.99;55.43;100794.19;4928544;28;20047;-79
2022/07/04 06:03:58;;;;;;;4.03;1.30;;;;;;;20.07;55.49;100794.44;4928987;29;20047;-83
2022/07/04 06:06:25;;;;;;;3.78;1.30;;;;;;;20.01;54.77;100780.63;4927474;28;20059;-81
2022/07/04 06:08:52;;;;;;;4.53;1.50;;;;;;;20.13;54.60;100795.81;4926925;28;20101;-83
2022/07/04 06:11:18;;;;;;;2.35;1.15;;;;;;;20.29;53.88;100812.41;4932971;28;20055;-82
2022/07/04 06:13:45;;;;;;;7.32;1.63;;;;;;;20.30;53.15;100779.16;4932939;28;20048;-79
2022/07/04 06:16:12;;;;;;;3.60;1.10;;;;;;;20.57;52.69;100808.34;4931435;28;20052;-81
2022/07/04 06:18:38;;;;;;;2.10;1.17;;;;;;;20.62;51.95;100788.13;4927130;28;20047;-77
2022/07/04 06:21:06;;;;;;;4.07;1.30;;;;;;;21.02;50.84;100798.28;4926124;28;20048;-86
2022/07/04 06:23:32;;;;;;;5.65;1.38;;;;;;;21.26;49.80;100801.63;4927393;28;20075;-79
2022/07/04 06:25:59;;;;;;;2.78;1.42;;;;;;;21.48;48.83;100794.41;4925302;28;20054;-84
2022/07/04 06:28:26;;;;;;;1.80;1.00;;;;;;;21.85;48.52;100806.41;4933828;28;20071;-82
2022/07/04 06:31:13;;;;;;;1.73;1.23;;;;;;;22.28;45.60;100791.84;4930274;28;20112;-76
2022/07/04 06:36:25;;;;;;;1.98;0.90;;;;;;;23.00;43.97;100802.34;4922095;29;20056;-80
2022/07/04 06:38:52;;;;;;;2.03;0.98;;;;;;;23.16;43.00;100780.16;4924134;28;22036;-76
2022/07/04 06:41:18;;;;;;;2.38;0.90;;;;;;;23.68;41.86;100808.56;4925303;28;20095;-75
2022/07/04 06:43:45;;;;;;;1.73;0.90;;;;;;;23.76;42.04;100811.41;4926895;28;20055;-77
2022/07/04 06:46:12;;;;;;;2.47;1.00;;;;;;;24.03;40.83;100814.16;4933549;28;20584;-80
2022/07/04 06:48:39;;;;;;;3.35;1.00;;;;;;;24.17;40.41;100812.81;4932831;28;20047;-78
2022/07/04 06:51:06;;;;;;;23.90;3.90;;;;;;;24.29;40.35;100811.63;4933421;28;20055;-80
2022/07/04 06:53:33;;;;;;;5.53;1.45;;;;;;;24.38;40.08;100793.66;4931106;28;20059;-79
2022/07/04 06:56:00;;;;;;;1.95;0.93;;;;;;;24.69;39.33;100795.03;4930213;28;20576;-75
2022/07/04 06:58:26;;;;;;;10.13;1.15;;;;;;;24.80;39.97;100789.38;4928070;28;20091;-79
2022/07/04 07:00:53;;;;;;;2.05;0.80;;;;;;;24.97;38.19;100782.28;4941138;28;20043;-79
2022/07/04 07:03:20;;;;;;;1.83;0.70;;;;;;;25.02;38.10;100781.81;4930195;28;20475;-76
2022/07/04 07:05:47;;;;;;;3.83;0.80;;;;;;;24.84;38.15;100784.50;4921355;28;20083;-79
2022/07/04 07:08:26;;;;;;;2.05;0.70;;;;;;;24.80;38.60;100785.81;4923159;28;20052;-81
2022/07/04 07:10:53;;;;;;;1.83;0.70;;;;;;;24.77;38.53;100784.25;4929364;28;20075;-81
2022/07/04 07:13:20;;;;;;;1.83;1.25;;;;;;;24.94;39.82;100776.31;4928725;28;20096;-78
2022/07/04 07:15:47;;;;;;;3.75;0.70;;;;;;;25.18;37.55;100766.53;4927099;28;20051;-74
2022/07/04 07:18:16;;;;;;;3.25;0.77;;;;;;;25.33;37.38;100772.25;4925129;28;20059;-79
2022/07/04 07:20:43;;;;;;;2.38;0.85;;;;;;;25.41;37.27;100750.63;4923914;28;20070;-75
2022/07/04 07:23:10;;;;;;;3.15;0.80;;;;;;;25.10;37.89;100768.34;4927890;29;20493;-76
2022/07/04 07:25:37;;;;;;;3.05;0.73;;;;;;;24.51;38.88;100764.34;4928322;28;20571;-76
2022/07/04 07:28:03;;;;;;;4.05;1.00;;;;;;;24.31;40.04;100760.91;4924514;28;20504;-80
2022/07/04 07:30:30;;;;;;;1.63;0.70;;;;;;;24.30;40.31;100755.66;4927058;28;21046;-79
2022/07/04 07:32:57;;;;;;;2.28;0.70;;;;;;;24.62;38.70;100753.28;4920982;28;20107;-77
2022/07/04 07:35:24;;;;;;;1.83;0.80;;;;;;;24.93;39.68;100763.75;4923144;29;20047;-76
2022/07/04 07:37:50;;;;;;;3.30;0.80;;;;;;;25.11;37.33;100749.22;4921550;28;20048;-75
2022/07/04 07:40:17;;;;;;;2.05;0.82;;;;;;;25.25;37.84;100761.34;4920012;28;20052;-75
2022/07/04 07:42:44;;;;;;;2.15;1.00;;;;;;;25.28;37.35;100758.31;4922977;29;20047;-74
2022/07/04 07:45:10;;;;;;;2.13;0.70;;;;;;;25.05;38.30;100766.09;4929373;28;20528;-73
2022/07/04 07:47:37;;;;;;;4.05;0.80;;;;;;;24.67;38.68;100771.78;4926673;28;20055;-73
2022/07/04 07:50:05;;;;;;;2.60;0.80;;;;;;;24.30;39.50;100766.47;4923389;29;20088;-80
2022/07/04 07:52:32;;;;;;;2.55;0.88;;;;;;;23.91;40.23;100769.34;4928015;28;20051;-77
2022/07/04 07:54:59;;;;;;;3.90;0.90;;;;;;;23.59;40.90;100758.94;4923815;28;20429;-77
2022/07/04 07:57:29;;;;;;;2.17;1.10;;;;;;;23.53;41.78;100770.31;4927583;28;20116;-75
2022/07/04 07:59:56;;;;;;;5.53;0.98;;;;;;;23.47;40.58;100742.97;4927443;28;20047;-72
2022/07/04 08:04:34;;;;;;;5.07;1.50;;;;;;;23.79;40.60;100768.66;4928947;28;20055;-78
2022/07/04 08:05:11;;;;;;;2.83;0.90;;;;;;;24.05;40.11;100770.72;4935087;28;20059;-73
2022/07/04 08:07:39;;;;;;;2.72;1.17;;;;;;;23.65;40.42;100771.84;4941328;28;20059;-76
2022/07/04 08:10:08;;;;;;;3.42;1.05;;;;;;;23.42;41.59;100768.63;4938008;28;20052;-77
2022/07/04 08:12:35;;;;;;;4.88;1.20;;;;;;;23.59;41.10;100774.31;4941408;29;20050;-73
2022/07/04 08:15:02;;;;;;;2.72;1.08;;;;;;;23.25;41.93;100766.66;4946264;29;20065;-75
2022/07/04 08:17:33;;;;;;;2.53;1.25;;;;;;;23.31;42.67;100760.66;4939650;28;20055;-74
2022/07/04 08:20:00;;;;;;;6.47;1.20;;;;;;;23.23;42.39;100760.53;4937372;28;20139;-77
2022/07/04 08:22:27;;;;;;;2.15;0.90;;;;;;;23.42;41.42;100757.81;4937598;28;20052;-73
2022/07/04 08:24:54;;;;;;;2.55;0.85;;;;;;;23.78;40.95;100758.84;4920911;28;20059;-74
2022/07/04 08:27:22;;;;;;;2.17;1.15;;;;;;;23.94;40.45;100738.44;4920709;28;20059;-74
2022/07/04 08:29:57;;;;;;;5.82;1.20;;;;;;;24.19;40.50;100761.25;4933207;28;20044;-77
2022/07/04 08:32:24;;;;;;;3.72;0.98;;;;;;;23.57;41.33;100757.38;4933112;28;20047;-75
2022/07/04 08:34:50;;;;;;;3.10;1.02;;;;;;;23.10;42.00;100738.38;4936041;28;20090;-74
2022/07/04 08:37:17;;;;;;;4.18;1.23;;;;;;;23.12;41.98;100747.19;4937018;28;21012;-72
2022/07/04 08:39:44;;;;;;;2.85;1.10;;;;;;;23.17;41.25;100754.84;4937784;28;20051;-74
2022/07/04 08:42:16;;;;;;;2.75;0.85;;;;;;;23.23;41.05;100735.38;4934414;29;20043;-76
2022/07/04 08:44:50;;;;;;;1.02;0.77;;;;;;;23.28;41.14;100733.94;4933322;28;20103;-76
2022/07/04 08:47:22;;;;;;;4.63;1.20;;;;;;;23.35;41.39;100731.50;4932969;28;20052;-74
2022/07/04 08:50:02;;;;;;;5.15;0.75;;;;;;;23.62;41.03;100730.72;4926945;28;20415;-81
2022/07/04 08:52:39;;;;;;;1.92;0.90;;;;;;;23.51;41.47;100725.47;4936122;28;20448;-80
2022/07/04 09:00:39;;;;;;;5.10;0.90;;;;;;;24.62;39.67;100720.81;4933618;28;20047;-82
2022/07/04 09:03:07;;;;;;;2.58;1.00;;;;;;;24.94;38.49;100714.84;4934306;28;20059;-81
2022/07/04 09:05:34;;;;;;;4.80;1.30;;;;;;;25.27;37.58;100715.09;4934724;28;20050;-82
2022/07/04 09:08:03;;;;;;;3.72;0.70;;;;;;;25.25;37.36;100707.13;4933821;28;20078;-80
2022/07/04 09:10:30;;;;;;;2.67;0.70;;;;;;;24.90;38.06;100713.44;4932737;28;20052;-77
2022/07/04 09:12:59;;;;;;;3.22;0.77;;;;;;;24.72;37.84;100710.72;4934185;28;20055;-77
2022/07/04 09:15:38;;;;;;;5.13;0.85;;;;;;;24.62;37.27;100707.25;4933938;28;20555;-79
2022/07/04 09:18:19;;;;;;;3.33;0.75;;;;;;;24.34;38.13;100700.22;4933863;28;20055;-80
2022/07/04 09:20:46;;;;;;;3.33;1.00;;;;;;;24.57;38.57;100708.72;4931853;28;20124;-78
2022/07/04 09:23:25;;;;;;;4.90;1.00;;;;;;;24.38;38.27;100707.03;4934889;28;20047;-78
2022/07/04 09:26:08;;;;;;;4.00;0.80;;;;;;;24.26;38.07;100694.69;4931671;28;20095;-78
2022/07/04 09:28:36;;;;;;;3.17;0.82;;;;;;;23.98;38.34;100710.09;4929063;28;20124;-72
2022/07/04 09:31:15;;;;;;;2.25;1.08;;;;;;;23.81;39.50;100706.31;4927329;28;20543;-79
2022/07/04 09:33:49;;;;;;;4.30;1.02;;;;;;;24.02;39.63;100698.81;4926603;29;20048;-76
2022/07/04 09:36:18;;;;;;;1.45;0.63;;;;;;;24.38;38.83;100693.50;4928960;28;20051;-79
2022/07/04 09:38:45;;;;;;;2.30;0.80;;;;;;;24.63;37.89;100683.75;4928639;28;20070;-81
2022/07/04 09:41:34;;;;;;;1.58;0.60;;;;;;;24.38;38.54;100688.94;4928576;29;20574;-81
2022/07/04 09:44:05;;;;;;;1.45;0.73;;;;;;;24.18;38.34;100694.59;4931085;28;20115;-77
2022/07/04 09:46:33;;;;;;;3.95;1.48;;;;;;;23.98;38.38;100692.00;4927723;28;20064;-79
2022/07/04 09:49:00;;;;;;;1.45;0.60;;;;;;;23.75;38.01;100683.44;4924481;28;20448;-75
2022/07/04 09:51:53;;;;;;;3.88;1.15;;;;;;;23.65;38.69;100663.69;4931314;28;20055;-80
2022/07/04 09:54:31;;;;;;;3.42;0.88;;;;;;;23.88;38.24;100685.81;4934517;28;20048;-80
2022/07/04 09:57:01;;;;;;;1.55;0.80;;;;;;;24.02;38.42;100668.22;4931636;28;20087;-79
2022/07/04 09:59:28;;;;;;;2.78;0.70;;;;;;;24.22;37.39;100682.47;4937635;28;20071;-75
2022/07/04 10:02:13;;;;;;;2.22;1.42;;;;;;;24.35;36.91;100677.56;4931130;28;20054;-76
2022/07/04 10:04:50;;;;;;;1.88;0.73;;;;;;;24.26;35.66;100662.22;4931236;28;20484;-77
2022/07/04 10:07:35;;;;;;;1.83;0.47;;;;;;;24.38;34.78;100686.22;4929968;28;20087;-73
2022/07/04 10:10:23;;;;;;;1.77;0.52;;;;;;;24.28;35.87;100693.56;4928143;28;20044;-77
2022/07/04 10:12:55;;;;;;;2.15;0.60;;;;;;;24.31;35.44;100684.28;4926606;28;20352;-77
2022/07/04 10:15:22;;;;;;;2.17;0.60;;;;;;;24.53;35.07;100694.66;4926407;28;20052;-80
2022/07/04 10:17:49;;;;;;;0.93;0.50;;;;;;;24.86;33.84;100689.53;4926692;28;20043;-75
2022/07/04 10:20:16;;;;;;;1.50;0.60;;;;;;;25.09;33.93;100690.75;4923513;29;20114;-75
2022/07/04 10:22:43;;;;;;;3.13;0.80;;;;;;;25.06;33.28;100691.91;4929016;28;20071;-79
2022/07/04 10:25:10;;;;;;;1.30;0.40;;;;;;;24.86;33.73;100689.53;4932339;28;20055;-76
2022/07/04 10:27:37;;;;;;;2.55;0.75;;;;;;;24.88;33.97;100687.50;4935304;28;20464;-76
2022/07/04 10:30:07;;;;;;;2.47;0.90;;;;;;;24.88;32.84;100658.56;4925817;28;20051;-80
2022/07/04 10:32:34;;;;;;;;;;;;;;;24.96;32.83;100684.91;4928633;28;20048;-80
2022/07/04 10:35:02;;;;;;;1.52;0.50;;;;;;;24.88;32.81;100687.50;4926420;28;20347;-81
2022/07/04 10:38:01;;;;;;;0.90;0.30;;;;;;;24.94;34.02;100678.78;4926157;28;20150;-81
2022/07/04 10:40:43;;;;;;;0.98;0.57;;;;;;;25.17;31.92;100680.84;4929208;28;20060;-75
2022/07/04 10:43:31;;;;;;;0.80;0.40;;;;;;;25.25;31.98;100665.63;4925552;28;20625;-80
2022/07/04 10:46:07;;;;;;;1.30;0.50;;;;;;;25.21;31.26;100696.75;4926637;29;20393;-77
2022/07/04 10:48:33;;;;;;;3.00;0.50;;;;;;;24.79;31.96;100684.75;4930869;28;20540;-75
2022/07/04 10:51:04;;;;;;;0.80;0.70;;;;;;;24.92;31.83;100699.72;4926718;28;20051;-79
2022/07/04 10:53:32;;;;;;;1.02;0.50;;;;;;;25.03;31.61;100684.09;4931916;28;20051;-76
2022/07/04 10:56:14;;;;;;;0.85;0.30;;;;;;;25.15;31.64;100690.13;4924420;28;20055;-76
2022/07/04 10:58:42;;;;;;;1.58;0.60;;;;;;;25.26;30.54;100691.72;4927919;28;20184;-80
2022/07/04 11:01:16;;;;;;;2.85;0.65;;;;;;;25.46;30.28;100682.38;4934970;28;20115;-77
2022/07/04 11:03:48;;;;;;;2.60;0.70;;;;;;;25.78;31.28;100687.13;4932601;28;20043;-80
2022/07/04 11:06:33;;;;;;;0.63;0.50;;;;;;;26.09;31.31;100696.41;4925134;28;20047;-77
2022/07/04 11:09:12;;;;;;;1.65;0.77;;;;;;;25.86;29.35;100689.88;4923604;28;20282;-76
2022/07/04 11:11:55;;;;;;;1.15;0.70;;;;;;;25.89;30.15;100681.41;4923762;29;20155;-76
2022/07/04 11:14:44;;;;;;;2.13;0.60;;;;;;;26.16;29.93;100688.44;4928789;28;20051;-78
2022/07/04 11:17:12;;;;;;;2.17;0.60;;;;;;;26.04;30.38;100662.63;4927430;29;20088;-76
2022/07/04 11:19:43;;;;;;;1.73;0.43;;;;;;;26.28;30.77;100684.41;4925826;29;20158;-78
2022/07/04 11:22:10;;;;;;;2.40;0.77;;;;;;;26.33;30.32;100683.94;4933099;28;20404;-75
2022/07/04 11:24:38;;;;;;;4.70;0.60;;;;;;;26.14;30.19;100679.59;4936676;28;20083;-81
2022/07/04 11:27:11;;;;;;;2.50;0.30;;;;;;;26.06;28.94;100677.72;4936437;28;20465;-79
2022/07/04 11:29:37;;;;;;;2.05;0.50;;;;;;;26.09;29.82;100674.69;4936515;28;20055;-78
2022/07/04 11:32:07;;;;;;;1.17;0.50;;;;;;;26.32;28.94;100671.38;4937629;28;20491;-79
2022/07/04 11:34:34;;;;;;;4.75;0.60;;;;;;;26.49;27.17;100670.38;4933432;28;20048;-78
2022/07/04 11:37:02;;;;;;;1.00;0.50;;;;;;;26.29;27.15;100647.28;4939669;28;20082;-77
2022/07/04 11:39:29;;;;;;;4.93;0.70;;;;;;;26.42;27.69;100658.50;4932759;28;20051;-76
2022/07/04 11:45:10;;;;;;;4.70;0.50;;;;;;;26.73;28.71;100662.25;4932353;28;21024;-75
2022/07/04 11:47:42;;;;;;;0.55;0.20;;;;;;;26.59;28.42;100660.22;4932979;28;20055;-77